Latest Coastal Weather Observations for Montague Island

IDN60701

Issued at 12:35 pm EST Wednesday 3 September 2014 (issued every 10 minutes, with the page automatically refreshed every 10 minutes)

About coastal observations | Map of coastal stations | Coastal observations for NSW | Marine services | Other Formats
Station Details ID: 069017 Name: MONTAGUE ISLAND LIGHTHOUSE Lat: -36.25 Lon: 150.23 Height: 52.0 m
Data from the previous 72 hours. | See also: Recent months at Montague Island
Date/Time
EST
Temp

°C
Wind Pressure Rain
since 9am
mm
Weather Cloud Vis
km
Sea
Height
m
Swell
Dir
 
Speed
knots
Gust
knots
hPa Trend Height
m
Period
s
Dir
03/12:31pm 14.5 SSW 31 42 1013.8 - 0.0 - - - - - - -
03/12:30pm 14.4 SSW 30 38 1013.9 - 0.0 - - - - - - -
03/12:17pm 13.8 SSW 28 39 1014.1 - 0.0 - - - - - - -
03/12:00pm 14.1 SW 32 40 1014.4 - 0.0 - - - - - - -
03/11:30am 13.1 SSW 33 44 1014.7 - 0.0 - - - - - - -
03/11:00am 13.5 SSW 33 45 1014.6 - 0.0 - - - - - - -
03/10:33am 13.0 SSW 34 45 1015.0 - 0.0 - - - - - - -
03/10:30am 13.2 SSW 35 43 1014.9 - 0.0 - - - - - - -
03/10:07am 13.1 SSW 31 43 1014.8 - 0.0 - - - - - - -
03/10:00am 13.1 SW 30 39 1014.9 - 0.0 - - - - - - -
03/09:43am 12.9 SSW 29 40 1015.0 - 0.0 - - - - - - -
03/09:30am 12.7 SW 30 37 1015.0 - 0.0 - - - - - - -
03/09:10am 12.2 SW 33 43 1015.0 - 0.0 - - - - - - -
03/09:00am 12.0 SW 33 43 1015.0 - - - - - - - - -
03/08:46am 11.9 SW 32 42 1015.0 - - - - - - - - -
03/08:30am 11.7 SW 35 43 1014.9 - - - - - - - - -
03/08:00am 11.4 SW 34 42 1015.0 - - - - - - - - -
03/07:48am 11.3 SW 33 43 1014.9 - - - - - - - - -
03/07:30am 11.0 SW 34 42 1014.9 - - - - - - - - -
03/07:19am 10.8 SW 32 44 1014.8 - - - - - - - - -
03/07:00am 10.3 SW 32 39 1015.0 - - - - - - - - -
03/06:30am 10.4 SW 34 42 1014.6 - - - - - - - - -
03/06:00am 10.0 WSW 32 43 1014.2 - - - - - - - - -
03/05:32am 10.2 SW 32 43 1014.2 - - - - - - - - -
03/05:30am 10.1 SW 33 43 1014.2 - - - - - - - - -
03/05:28am 10.2 SW 32 43 1014.2 - - - - - - - - -
03/05:00am 10.1 SW 30 38 1013.9 - - - - - - - - -
03/04:41am 9.8 WSW 32 42 1013.7 - - - - - - - - -
03/04:30am 9.8 WSW 32 38 1013.4 - - - - - - - - -
03/04:00am 10.1 WSW 31 37 1013.1 - - - - - - - - -
03/03:55am 10.4 WSW 31 36 1013.1 - - - - - - - - -
03/03:30am 10.5 SW 41 50 1012.3 - - - - - - - - -
03/03:14am 10.9 SW 40 50 1012.4 - 5.0 - - - - - - -
03/03:00am 10.9 SW 37 47 1012.5 - 5.0 - - - - - - -
03/02:53am 11.1 SW 37 47 1012.4 - 5.0 - - - - - - -
03/02:30am 11.3 SW 37 44 1012.4 - 5.0 - - - - - - -
03/02:00am 11.7 SW 33 44 1012.5 - 5.0 - - - - - - -
03/01:56am 11.8 SW 33 44 1012.6 - 5.0 - - - - - - -
03/01:30am 11.7 SW 34 42 1012.7 - 5.0 - - - - - - -
03/01:00am 11.7 SW 31 38 1013.0 - 5.0 - - - - - - -
03/12:30am 12.0 SSW 35 46 1012.9 - 5.0 - - - - - - -
03/12:28am 12.1 SSW 36 46 1012.8 - 5.0 - - - - - - -
03/12:00am 11.8 SW 31 38 1013.2 - 5.0 - - - - - - -
 
Date/Time
EST
Temp

°C
Wind Pressure Rain
since 9am
mm
Weather Cloud Vis
km
Sea
Height
m
Swell
Dir
 
Speed
knots
Gust
knots
hPa Trend Height
m
Period
s
Dir
02/11:38pm 11.8 SW 35 46 1012.7 - 5.0 - - - - - - -
02/11:30pm 11.6 SW 37 46 1012.6 - 5.0 - - - - - - -
02/11:04pm 11.4 SW 35 46 1012.4 - 5.0 - - - - - - -
02/11:00pm 11.4 SW 34 42 1012.5 - 5.0 - - - - - - -
02/10:30pm 11.2 SSW 36 46 1012.7 - 5.0 - - - - - - -
02/10:00pm 11.7 SW 42 52 1011.7 - 5.0 - - - - - - -
02/09:30pm 11.4 SW 40 54 1011.8 - 5.0 - - - - - - -
02/09:10pm 11.5 SW 36 46 1012.1 - 5.0 - - - - - - -
02/09:00pm 11.6 SW 37 47 1012.1 - 5.0 - - - - - - -
02/08:40pm 11.6 SW 39 50 1011.8 - 5.0 - - - - - - -
02/08:30pm 11.7 SW 39 48 1011.7 - 5.0 - - - - - - -
02/08:16pm 11.7 SW 38 49 1011.5 - 5.0 - - - - - - -
02/08:00pm 11.3 SW 37 45 1011.2 - 5.0 - - - - - - -
02/07:39pm 10.6 SW 33 44 1011.3 - 4.8 - - - - - - -
02/07:30pm 10.6 SW 33 40 1011.4 - 4.8 - - - - - - -
02/07:00pm 10.5 SW 37 49 1010.5 - 4.8 - - - - - - -
02/06:58pm 10.3 SW 36 47 1010.5 - 4.8 - - - - - - -
02/06:30pm 10.1 SW 33 41 1010.5 - 4.8 - - - - - - -
02/06:00pm 9.3 WSW 31 41 1010.6 - 4.2 Rain - - - - - -
02/05:30pm 9.1 WSW 34 41 1009.6 - 2.8 - - - - - - -
02/05:13pm 9.6 WSW 32 43 1009.3 - 1.8 - - - - - - -
02/05:00pm 9.3 WSW 32 38 1009.4 - 1.4 - - - - - - -
02/04:30pm 9.8 WSW 31 39 1009.4 - 0.6 - - - - - - -
02/04:00pm 10.4 WSW 31 40 1009.5 - 0.2 - - - - - - -
02/03:30pm 11.1 SW 31 38 1009.0 - 0.2 - - - - - - -
02/03:00pm 11.5 SW 27 32 1008.9 - 0.2 Recent precip. - - - - - -
02/02:30pm 11.8 WSW 29 33 1008.6 - 0.0 - - - - - - -
02/02:00pm 13.6 SW 25 31 1008.3 - 0.0 - - - - - - -
02/01:30pm 13.9 SW 25 30 1008.1 - 0.0 - - - - - - -
02/01:00pm 14.0 SSW 26 33 1008.2 - 0.0 - - - - - - -
02/12:30pm 14.4 SW 24 29 1008.3 - 0.0 - - - - - - -
02/12:00pm 14.1 SW 16 20 1008.7 - 0.0 - - - - - - -
02/11:30am 13.8 SW 13 16 1008.8 - 0.0 - - - - - - -
02/11:00am 14.1 SW 17 22 1008.9 - 0.0 - - - - - - -
02/10:30am 14.0 SW 19 25 1008.7 - 0.0 - - - - - - -
02/10:00am 13.8 SW 16 23 1009.0 - 0.0 - - - - - - -
02/09:30am 13.1 WSW 18 23 1009.1 - 0.0 - - - - - - -
02/09:00am 12.7 WSW 14 17 1009.2 - 63.0 - - - - - - -
02/08:30am 12.6 SW 20 25 1009.0 - 63.0 - - - - - - -
02/08:00am 12.2 SW 21 25 1008.6 - 63.0 - - - - - - -
02/07:30am 12.0 SW 24 28 1008.5 - 63.0 - - - - - - -
02/07:00am 11.4 SW 20 24 1008.1 - 63.0 - - - - - - -
02/06:30am 11.4 SW 27 34 1007.8 - 63.0 - - - - - - -
02/06:00am 12.1 SW 30 37 1007.2 - 63.0 Recent precip. - - - - - -
02/05:30am 12.5 SSW 24 29 1007.1 - 63.0 - - - - - - -
02/05:00am 12.7 S 24 29 1006.9 - 62.8 - - - - - - -
02/04:30am 13.4 S 20 26 1006.9 - 62.6 - - - - - - -
02/04:00am 14.0 S 19 24 1007.0 - 62.4 - - - - - - -
02/03:30am 14.5 S 13 16 1007.3 - 62.4 - - - - - - -
02/03:00am 14.4 S 15 19 1007.2 - 62.4 - - - - - - -
02/02:30am 14.7 S 17 20 1007.3 - 62.4 - - - - - - -
02/02:00am 14.8 S 15 18 1007.7 - 62.4 - - - - - - -
02/01:30am 14.8 S 19 23 1007.6 - 62.4 - - - - - - -
02/01:00am 15.2 S 21 26 1007.7 - 62.4 - - - - - - -
02/12:55am 15.4 S 19 26 1007.7 - 62.4 - - - - - - -
02/12:30am 16.2 SW 11 15 1007.8 - 62.4 - - - - - - -
02/12:00am 16.9 NNW 10 13 1007.7 - 62.4 - - - - - - -
 
Date/Time
EST
Temp

°C
Wind Pressure Rain
since 9am
mm
Weather Cloud Vis
km
Sea
Height
m
Swell
Dir
 
Speed
knots
Gust
knots
hPa Trend Height
m
Period
s
Dir
01/11:30pm 16.9 N 12 14 1007.7 - 62.4 - - - - - - -
01/11:00pm 17.4 N 11 14 1007.9 - 62.4 - - - - - - -
01/10:30pm 17.6 N 14 20 1007.9 - 62.4 - - - - - - -
01/10:00pm 18.1 N 16 20 1007.9 - 62.4 - - - - - - -
01/09:30pm 18.7 N 16 20 1008.0 - 62.4 - - - - - - -
01/09:00pm 18.7 N 18 23 1008.1 - 62.2 Rain - - - - - -
01/08:30pm 17.9 NNW 18 23 1008.1 - 62.0 - - - - - - -
01/08:00pm 17.7 NNW 13 17 1008.0 - 61.8 - - - - - - -
01/07:30pm 17.6 NNW 10 12 1008.2 - 50.6 - - - - - - -
01/07:00pm 17.4 NW 10 12 1008.2 - 26.8 - - - - - - -
01/06:30pm 17.8 NNW 12 17 1007.9 - 0.0 - - - - - - -
01/06:00pm 18.1 N 13 17 1007.9 - 0.0 - - - - - - -
01/05:30pm 18.7 N 16 21 1007.8 - 0.0 - - - - - - -
01/05:00pm 18.4 NNE 15 20 1007.8 - 0.0 - - - - - - -
01/04:30pm 17.8 NNE 13 16 1007.6 - 0.0 - - - - - - -
01/04:00pm 17.9 NE 14 17 1007.7 - 0.0 - - - - - - -
01/03:30pm 17.9 NNE 13 15 1007.8 - 0.0 - - - - - - -
01/03:00pm 18.1 NNE 12 14 1008.2 - 0.0 - - - - - - -
01/02:30pm 18.5 NNE 14 16 1008.2 - 0.0 - - - - - - -
01/02:00pm 18.6 NNE 11 14 1008.7 - 0.0 - - - - - - -
01/01:30pm 18.6 NNE 7 11 1009.2 - 0.0 - - - - - - -
01/01:00pm 17.8 NNE 8 9 1009.5 - 0.0 - - - - - - -
01/12:30pm 17.9 N 7 9 1010.2 - 0.0 - - - - - - -
01/12:00pm 17.9 N 9 12 1010.5 - 0.0 - - - - - - -
01/11:30am 16.8 N 11 14 1011.0 - 0.0 - - - - - - -
01/11:00am 17.2 N 12 17 1011.4 - 0.0 - - - - - - -
01/10:30am 16.5 N 15 19 1011.7 - 0.0 - - - - - - -
01/10:00am 14.4 NNW 10 13 1012.3 - 0.0 - - - - - - -
01/09:30am 14.3 N 9 11 1012.8 - 0.0 - - - - - - -
01/09:00am 13.5 N 8 10 1013.0 - 0.0 - - - - - - -
01/08:30am 13.7 NNW 7 9 1013.4 - 0.0 - - - - - - -
01/08:00am 12.9 NNW 9 11 1013.4 - 0.0 - - - - - - -
01/07:30am 12.6 NNW 9 12 1013.4 - 0.0 - - - - - - -
01/07:00am 12.5 NNW 11 13 1013.2 - 0.0 - - - - - - -
01/06:30am 12.5 NNW 9 12 1013.4 - 0.0 - - - - - - -
01/06:00am 11.8 NW 10 12 1013.3 - 0.0 - - - - - - -
01/05:30am 11.9 N 9 10 1013.2 - 0.0 - - - - - - -
01/05:00am 11.9 N 9 10 1013.3 - 0.0 - - - - - - -
01/04:30am 12.1 NW 6 7 1013.2 - 0.0 - - - - - - -
01/04:00am 12.3 NW 5 6 1013.6 - 0.0 - - - - - - -
01/03:30am 12.5 NNW 6 8 1013.6 - 0.0 - - - - - - -
01/03:00am 12.5 NNW 7 10 1013.9 - 0.0 - - - - - - -
01/02:30am 13.0 NW 8 10 1014.1 - 0.0 - - - - - - -
01/02:00am 13.2 NNW 8 10 1014.4 - 0.0 - - - - - - -
01/01:30am 13.1 N 8 10 1014.8 - 0.0 - - - - - - -
01/01:00am 13.5 NNW 6 8 1015.3 - 0.0 - - - - - - -
01/12:30am 14.0 NNW 7 8 1015.6 - 0.0 - - - - - - -
01/12:00am 14.0 N 6 7 1015.7 - 0.0 - - - - - - -
 
Date/Time
EST
Temp

°C
Wind Pressure Rain
since 9am
mm
Weather Cloud Vis
km
Sea
Height
m
Swell
Dir
 
Speed
knots
Gust
knots
hPa Trend Height
m
Period
s
Dir
31/11:30pm 13.7 NW 5 6 1015.9 - 0.0 - - - - - - -
31/11:00pm 14.0 NW 5 7 1016.3 - 0.0 - - - - - - -
31/10:30pm 14.3 NNW 6 8 1016.6 - 0.0 - - - - - - -
31/10:00pm 14.7 NNW 7 9 1016.8 - 0.0 - - - - - - -
31/09:30pm 15.5 N 11 13 1017.0 - 0.0 - - - - - - -
31/09:00pm 15.4 N 9 12 1017.2 - 0.0 - - - - - - -
31/08:30pm 15.4 NNE 10 12 1017.2 - 0.0 - - - - - - -
31/08:00pm 15.3 NNE 10 11 1017.3 - 0.0 - - - - - - -
31/07:30pm 15.3 NNE 8 11 1017.2 - 0.0 - - - - - - -
31/07:00pm 15.3 NNE 9 10 1017.0 - 0.0 - - - - - - -
31/06:30pm 15.3 NE 8 11 1016.9 - 0.0 - - - - - - -
31/06:00pm 15.2 NE 8 10 1016.7 - 0.0 - - - - - - -
31/05:30pm 15.3 NE 10 12 1016.6 - 0.0 - - - - - - -
31/05:00pm 15.4 NE 11 13 1016.3 - 0.0 - - - - - - -
31/04:30pm 15.6 NE 11 13 1016.3 - 0.0 - - - - - - -
31/04:00pm 15.8 NE 11 14 1016.2 - 0.0 - - - - - - -
31/03:30pm 16.0 NE 11 14 1016.4 - 0.0 - - - - - - -
31/03:00pm 15.9 NE 12 14 1016.6 - 0.0 - - - - - - -
31/02:30pm 16.1 NE 12 15 1016.8 - 0.0 - - - - - - -
31/02:00pm 15.9 ENE 11 13 1017.0 - 0.0 - - - - - - -
31/01:30pm 15.8 NE 10 12 1017.4 - 0.0 - - - - - - -
31/01:00pm 16.0 ENE 9 11 1017.8 - 0.0 - - - - - - -

Other Formats:

Comma delimited format used in spreadsheet applications
http://www.bom.gov.au/fwo/IDN60701/IDN60701.94939.axf

JavaScript Object Notation format (JSON) in row-major order
http://www.bom.gov.au/fwo/IDN60701/IDN60701.94939.json